map of TUA home
TUA - Airport
Location
City:  Tulcán, Carchi, Ecuador
Name:El Rosal - Teniente Mantilla
ICAO:SETU
IATA:TUA

Details
Type:Airport (Aerodrome, Airfield)
Latitude:0°48'34"N (0.809506)
Longitude:77°42'29"W (-77.708055)
Datum:WGS 1984
Elevation:9649 ft (2941 m)
Variation:4.34°W (WMM2015 magnetic declination)
-0.16° annual change
Runways:1
Longest:8071 × 98 ft (2460 × 30 m), paved

Time
Time Zone:UTC-5
Local Time:

Weather
METAR:SETU 181400Z 08003KT 9999 SCT023 14/08 Q1032

Related Locations
Nearby:
Farthest:RGT: 12448 mi / 20033 km
Rengat [Japura], RI, ID

Find:

   beyond  
but within

Other Information
Maps:
NOTAMs:
Links:
Sources:

  
  • flag of Ecuador
  • flag of Carchi
  

Sectional Chart

Flight Planning
at skyvector.com

Satellite Image

Google Maps Satellite view

 

Copyright © 2004-2018 Karl L. Swartz. All rights reserved.
The Great Circle Mapper name and logo are trademarks of the Great Circle Mapper.
All other trademarks mentioned herein belong to their respective owners.
Please see credits for attibutions and further copyright information.

  Follow gcmap on Facebook Follow gcmap on Twitter Follow gcmap on Google+ GCmap on LinkedIn

hCard Microformat

Geo Microformat